createdAt,value
2019-02-22T00:00:01.544Z,99.99
2019-02-22T00:01:01.535Z,99.99
2019-02-22T00:02:01.526Z,99.99
2019-02-22T00:03:01.513Z,99.99
2019-02-22T00:04:01.501Z,99.99
2019-02-22T00:05:01.490Z,99.99
2019-02-22T00:06:01.482Z,99.99
2019-02-22T00:07:01.537Z,99.99
2019-02-22T00:08:01.460Z,99.99
2019-02-22T00:09:01.447Z,99.99
2019-02-22T00:10:01.438Z,99.99
2019-02-22T00:11:01.428Z,99.99
2019-02-22T00:12:01.415Z,99.99
2019-02-22T00:13:01.408Z,99.99
2019-02-22T00:14:01.407Z,99.99
2019-02-22T00:15:01.398Z,99.99
2019-02-22T00:16:01.373Z,99.99
2019-02-22T00:17:01.363Z,99.99
2019-02-22T00:18:01.354Z,99.99
2019-02-22T00:19:01.344Z,99.99
2019-02-22T00:20:01.332Z,99.99
2019-02-22T00:21:01.368Z,99.99
2019-02-22T00:22:01.311Z,99.99
2019-02-22T00:23:01.297Z,99.99
2019-02-22T00:24:01.286Z,99.99
2019-02-22T00:25:01.277Z,99.99
2019-02-22T00:26:01.272Z,99.99
2019-02-22T00:27:01.257Z,99.99
2019-02-22T00:28:01.260Z,99.99
2019-02-22T00:29:01.235Z,99.99
2019-02-22T00:30:01.226Z,99.99
2019-02-22T00:31:01.214Z,99.99
2019-02-22T00:32:01.202Z,99.99
2019-02-22T00:33:01.193Z,99.99
2019-02-22T00:34:01.183Z,99.99
2019-02-22T00:35:01.172Z,99.99
2019-02-22T00:36:01.190Z,99.99
2019-02-22T00:37:01.171Z,99.99
2019-02-22T00:38:01.140Z,99.99
2019-02-22T00:39:01.129Z,99.77
2019-02-22T00:40:01.121Z,99.57
2019-02-22T00:41:01.129Z,99.88
2019-02-22T00:42:01.096Z,99.99
2019-02-22T00:43:01.087Z,99.99
2019-02-22T00:44:01.080Z,99.99
2019-02-22T00:45:01.063Z,99.99
2019-02-22T00:46:01.053Z,99.99
2019-02-22T00:47:01.042Z,99.99
2019-02-22T00:48:01.031Z,99.99
2019-02-22T00:49:01.023Z,99.99
2019-02-22T00:50:01.012Z,99.72
2019-02-22T00:51:01.001Z,99.88
2019-02-22T00:52:00.991Z,99.99
2019-02-22T00:53:00.982Z,99.99
2019-02-22T00:54:00.966Z,99.99
2019-02-22T00:55:00.994Z,99.93
2019-02-22T00:56:00.950Z,99.47
2019-02-22T00:57:00.938Z,99.98
2019-02-22T00:58:00.927Z,99.99
2019-02-22T00:59:00.915Z,99.77
2019-02-22T01:00:00.905Z,99.99
2019-02-22T01:01:00.892Z,99.51
2019-02-22T01:02:00.883Z,99.99
2019-02-22T01:03:00.877Z,99.99
2019-02-22T01:04:00.865Z,99.93
2019-02-22T01:05:00.851Z,99.99
2019-02-22T01:06:00.842Z,99.51
2019-02-22T01:07:00.839Z,99.99
2019-02-22T01:08:00.820Z,99.99
2019-02-22T01:09:00.810Z,99.99
2019-02-22T01:10:00.796Z,99.99
2019-02-22T01:11:00.785Z,99.99
2019-02-22T01:12:00.780Z,99.99
2019-02-22T01:13:00.766Z,99.51
2019-02-22T01:14:00.757Z,99.99
2019-02-22T01:15:00.758Z,99.99
2019-02-22T01:16:00.734Z,99.99
2019-02-22T01:17:00.722Z,99.99
2019-02-22T01:18:00.713Z,99.62
2019-02-22T01:19:00.701Z,99.99
2019-02-22T01:20:00.741Z,99.82
2019-02-22T01:21:00.684Z,99.72
2019-02-22T01:22:00.671Z,99.82
2019-02-22T01:23:00.658Z,99.62
2019-02-22T01:24:00.681Z,99.72
2019-02-22T01:25:00.643Z,99.82
2019-02-22T01:26:00.627Z,99.51
2019-02-22T01:27:00.622Z,99.51
2019-02-22T01:28:00.609Z,99.41
2019-02-22T01:29:00.595Z,99.51
2019-02-22T01:30:00.775Z,99.51
2019-02-22T01:31:00.574Z,99.82
2019-02-22T01:32:00.563Z,99.72
2019-02-22T01:33:00.562Z,99.62
2019-02-22T01:34:00.542Z,99.31
2019-02-22T01:35:00.534Z,99.99
2019-02-22T01:36:00.528Z,99.99
2019-02-22T01:37:00.512Z,99.99
2019-02-22T01:38:00.502Z,99.99
2019-02-22T01:39:00.491Z,99.99
2019-02-22T01:40:00.480Z,99.99
2019-02-22T01:41:00.475Z,99.99
2019-02-22T01:42:00.457Z,99.99
2019-02-22T01:43:00.449Z,99.97
2019-02-22T01:44:00.436Z,99.99
2019-02-22T01:45:00.445Z,99.99
2019-02-22T01:46:00.416Z,99.99
2019-02-22T01:47:00.411Z,99.99
2019-02-22T01:48:00.397Z,99.99
2019-02-22T01:49:00.391Z,99.99
2019-02-22T01:50:00.375Z,99.99
2019-02-22T01:51:00.367Z,99.99
2019-02-22T01:52:00.350Z,99.99
2019-02-22T01:53:00.346Z,99.99
2019-02-22T01:54:00.330Z,99.99
2019-02-22T01:55:00.355Z,99.99
2019-02-22T01:56:00.311Z,99.99
2019-02-22T01:57:00.296Z,99.99
2019-02-22T01:58:00.292Z,99.99
2019-02-22T01:59:00.279Z,99.99
2019-02-22T02:00:00.396Z,99.99
2019-02-22T02:01:00.255Z,99.99
2019-02-22T02:02:00.244Z,99.99
2019-02-22T02:03:00.234Z,99.99
2019-02-22T02:04:00.223Z,99.99
2019-02-22T02:05:00.215Z,99.99
2019-02-22T02:06:00.211Z,99.99
2019-02-22T02:07:00.190Z,99.99
2019-02-22T02:08:00.180Z,99.99
2019-02-22T02:09:00.172Z,99.97
2019-02-22T02:10:00.310Z,99.99
2019-02-22T02:11:00.146Z,99.99
2019-02-22T02:12:01.987Z,99.66
2019-02-22T02:13:00.126Z,99.99
2019-02-22T02:14:00.115Z,99.99
2019-02-22T02:15:00.336Z,99.99
2019-02-22T02:16:00.100Z,99.87
2019-02-22T02:17:00.086Z,99.99
2019-02-22T02:18:00.071Z,99.99
2019-02-22T02:19:00.062Z,99.99
2019-02-22T02:20:00.222Z,99.66
2019-02-22T02:21:00.044Z,99.97
2019-02-22T02:22:00.030Z,99.99
2019-02-22T02:23:00.019Z,99.56
2019-02-22T02:24:00.010Z,99.77
2019-02-22T02:25:00.013Z,99.99
2019-02-22T02:25:59.986Z,99.99
2019-02-22T02:26:59.981Z,99.99
2019-02-22T02:27:59.967Z,99.71
2019-02-22T02:28:59.956Z,99.99
2019-02-22T02:30:00.013Z,99.99
2019-02-22T02:30:59.934Z,99.99
2019-02-22T02:31:59.924Z,99.71
2019-02-22T02:32:59.914Z,99.99
2019-02-22T02:33:59.901Z,99.99
2019-02-22T02:34:59.891Z,99.99
2019-02-22T02:35:59.880Z,99.99
2019-02-22T02:36:59.871Z,99.99
2019-02-22T02:37:59.862Z,99.99
2019-02-22T02:38:59.882Z,99.99
2019-02-22T02:39:59.845Z,99.99
2019-02-22T02:41:09.945Z,99.99
2019-02-22T02:42:00.815Z,99.99
2019-02-22T02:42:59.807Z,99.99
2019-02-22T02:43:59.797Z,99.71
2019-02-22T02:44:59.784Z,99.71
2019-02-22T02:45:59.775Z,99.51
2019-02-22T02:46:59.765Z,99.51
2019-02-22T02:47:59.756Z,99.91
2019-02-22T02:48:59.742Z,99.60
2019-02-22T02:49:59.733Z,99.71
2019-02-22T02:50:59.722Z,99.81
2019-02-22T02:51:59.710Z,99.81
2019-02-22T02:52:59.703Z,99.60
2019-02-22T02:53:59.696Z,99.91
2019-02-22T02:54:59.680Z,99.81
2019-02-22T02:55:59.667Z,99.99
2019-02-22T02:56:59.657Z,99.91
2019-02-22T02:57:59.647Z,99.81
2019-02-22T02:58:59.645Z,99.40
2019-02-22T02:59:59.627Z,99.91
2019-02-22T03:00:59.614Z,99.40
2019-02-22T03:01:59.607Z,99.19
2019-02-22T03:02:59.602Z,99.30
2019-02-22T03:03:59.583Z,99.40
2019-02-22T03:04:59.573Z,99.60
2019-02-22T03:05:59.561Z,99.51
2019-02-22T03:06:59.553Z,98.79
2019-02-22T03:07:59.543Z,98.68
2019-02-22T03:08:59.536Z,98.68
2019-02-22T03:09:59.521Z,98.99
2019-02-22T03:10:59.511Z,98.79
2019-02-22T03:11:59.498Z,98.16
2019-02-22T03:12:59.510Z,98.37
2019-02-22T03:13:59.477Z,98.58
2019-02-22T03:14:59.465Z,98.27
2019-02-22T03:15:59.472Z,98.58
2019-02-22T03:16:59.449Z,98.16
2019-02-22T03:17:59.438Z,98.16
2019-02-22T03:18:59.422Z,98.68
2019-02-22T03:19:59.416Z,98.47
2019-02-22T03:20:59.470Z,98.27
2019-02-22T03:21:59.396Z,98.47
2019-02-22T03:22:59.383Z,98.68
2019-02-22T03:23:59.369Z,98.37
2019-02-22T03:24:59.360Z,98.58
2019-02-22T03:25:59.349Z,98.37
2019-02-22T03:26:59.339Z,98.58
2019-02-22T03:27:59.326Z,98.21
2019-02-22T03:28:59.316Z,97.96
2019-02-22T03:29:59.309Z,98.11
2019-02-22T03:30:59.334Z,98.00
2019-02-22T03:31:59.307Z,98.21
2019-02-22T03:32:59.274Z,98.21
2019-02-22T03:33:59.273Z,97.60
2019-02-22T03:34:59.253Z,97.69
2019-02-22T03:35:59.242Z,98.32
2019-02-22T03:36:59.229Z,98.32
2019-02-22T03:37:59.225Z,98.62
2019-02-22T03:38:59.211Z,98.62
2019-02-22T03:39:59.198Z,98.58
2019-02-22T03:40:59.188Z,98.52
2019-02-22T03:41:59.176Z,97.39
2019-02-22T03:42:59.168Z,97.39
2019-02-22T03:43:59.157Z,97.08
2019-02-22T03:44:59.144Z,96.56
2019-02-22T03:45:59.137Z,96.56
2019-02-22T03:46:59.124Z,96.46
2019-02-22T03:47:59.127Z,96.61
2019-02-22T03:48:59.102Z,96.56
2019-02-22T03:49:59.090Z,96.56
2019-02-22T03:50:59.079Z,96.41
2019-02-22T03:51:59.072Z,96.61
2019-02-22T03:52:59.062Z,96.71
2019-02-22T03:53:59.049Z,96.61
2019-02-22T03:54:59.038Z,96.30
2019-02-22T03:55:59.027Z,96.09
2019-02-22T03:56:59.016Z,96.30
2019-02-22T03:57:59.006Z,96.55
2019-02-22T03:58:58.995Z,95.73
2019-02-22T03:59:58.987Z,93.98
2019-02-22T04:00:58.982Z,93.05
2019-02-22T04:01:58.964Z,93.05
2019-02-22T04:02:58.952Z,92.43
2019-02-22T04:03:58.943Z,92.63
2019-02-22T04:04:59.009Z,92.74
2019-02-22T04:05:58.933Z,92.63
2019-02-22T04:06:58.913Z,92.94
2019-02-22T04:07:58.901Z,91.91
2019-02-22T04:08:58.889Z,91.44
2019-02-22T04:09:58.878Z,90.61
2019-02-22T04:10:58.869Z,90.92
2019-02-22T04:11:58.862Z,90.72
2019-02-22T04:12:58.848Z,91.64
2019-02-22T04:13:58.834Z,91.75
2019-02-22T04:14:58.825Z,91.28
2019-02-22T04:15:58.813Z,90.35
2019-02-22T04:16:58.805Z,90.86
2019-02-22T04:17:58.794Z,91.28
2019-02-22T04:18:58.780Z,91.89
2019-02-22T04:19:58.773Z,90.91
2019-02-22T04:20:58.764Z,90.91
2019-02-22T04:21:58.750Z,90.70
2019-02-22T04:22:58.741Z,91.32
2019-02-22T04:23:58.730Z,91.22
2019-02-22T04:24:58.716Z,90.84
2019-02-22T04:25:58.709Z,91.98
2019-02-22T04:26:58.697Z,91.09
2019-02-22T04:27:58.686Z,90.84
2019-02-22T04:28:58.676Z,91.71
2019-02-22T04:29:58.680Z,91.92
2019-02-22T04:30:58.653Z,91.92
2019-02-22T04:31:58.644Z,92.13
2019-02-22T04:32:58.633Z,92.13
2019-02-22T04:33:58.621Z,91.50
2019-02-22T04:34:58.610Z,92.13
2019-02-22T04:35:58.604Z,92.13
2019-02-22T04:36:58.589Z,92.95
2019-02-22T04:37:58.581Z,93.05
2019-02-22T04:38:58.574Z,93.20
2019-02-22T04:39:58.556Z,93.04
2019-02-22T04:40:58.546Z,93.41
2019-02-22T04:41:58.553Z,93.24
2019-02-22T04:42:58.525Z,94.07
2019-02-22T04:43:58.513Z,94.18
2019-02-22T04:44:58.502Z,94.38
2019-02-22T04:45:58.501Z,94.63
2019-02-22T04:46:58.483Z,94.84
2019-02-22T04:47:58.470Z,95.46
2019-02-22T04:48:58.462Z,95.87
2019-02-22T04:49:58.450Z,95.71
2019-02-22T04:50:58.439Z,96.02
2019-02-22T04:51:58.433Z,96.89
2019-02-22T04:52:58.417Z,96.89
2019-02-22T04:53:58.407Z,97.04
2019-02-22T04:54:58.399Z,97.97
2019-02-22T04:55:58.398Z,98.28
2019-02-22T04:56:58.374Z,97.45
2019-02-22T04:57:58.366Z,97.87
2019-02-22T04:58:58.351Z,97.87
2019-02-22T04:59:58.345Z,98.08
2019-02-22T05:00:58.331Z,97.97
2019-02-22T05:01:58.320Z,98.22
2019-02-22T05:02:58.313Z,98.33
2019-02-22T05:03:58.299Z,97.66
2019-02-22T05:04:58.288Z,98.02
2019-02-22T05:05:58.277Z,98.22
2019-02-22T05:06:58.267Z,97.81
2019-02-22T05:07:58.256Z,97.71
2019-02-22T05:08:58.248Z,97.71
2019-02-22T05:09:58.235Z,97.71
2019-02-22T05:10:58.230Z,97.81
2019-02-22T05:12:10.056Z,97.71
2019-02-22T05:12:59.202Z,97.81
2019-02-22T05:13:58.195Z,97.09
2019-02-22T05:14:58.186Z,97.09
2019-02-22T05:15:58.174Z,97.29
2019-02-22T05:16:58.161Z,96.98
2019-02-22T05:17:58.151Z,97.29
2019-02-22T05:18:58.143Z,97.29
2019-02-22T05:19:58.133Z,97.34
2019-02-22T05:20:58.120Z,97.55
2019-02-22T05:21:58.108Z,97.55
2019-02-22T05:23:03.795Z,97.96
2019-02-22T05:23:59.087Z,97.86
2019-02-22T05:24:58.075Z,97.55
2019-02-22T05:25:58.064Z,97.86
2019-02-22T05:26:58.065Z,98.17
2019-02-22T05:27:58.047Z,98.00
2019-02-22T05:28:58.038Z,98.07
2019-02-22T05:29:58.031Z,98.38
2019-02-22T05:30:58.012Z,98.38
2019-02-22T05:31:58.003Z,98.42
2019-02-22T05:32:57.993Z,98.94
2019-02-22T05:33:57.980Z,99.56
2019-02-22T05:34:57.970Z,99.35
2019-02-22T05:35:57.964Z,99.25
2019-02-22T05:36:57.948Z,99.25
2019-02-22T05:37:57.940Z,99.66
2019-02-22T05:38:57.927Z,99.98
2019-02-22T05:39:57.919Z,99.25
2019-02-22T05:40:57.905Z,99.35
2019-02-22T05:41:57.895Z,99.46
2019-02-22T05:42:57.890Z,99.35
2019-02-22T05:43:57.877Z,99.35
2019-02-22T05:44:57.865Z,99.98
2019-02-22T05:45:57.853Z,99.92
2019-02-22T05:47:00.645Z,99.87
2019-02-22T05:47:57.833Z,99.30
2019-02-22T05:48:57.821Z,99.30
2019-02-22T05:49:57.820Z,99.35
2019-02-22T05:50:57.801Z,99.40
2019-02-22T05:51:57.789Z,99.35
2019-02-22T05:52:57.782Z,99.35
2019-02-22T05:53:57.769Z,99.09
2019-02-22T05:54:57.770Z,98.73
2019-02-22T05:55:57.749Z,98.88
2019-02-22T05:56:57.740Z,98.83
2019-02-22T05:57:57.726Z,98.88
2019-02-22T05:58:57.715Z,98.16
2019-02-22T05:59:57.705Z,98.16
2019-02-22T06:00:57.697Z,98.16
2019-02-22T06:01:57.684Z,98.47
2019-02-22T06:02:57.672Z,97.90
2019-02-22T06:03:57.661Z,97.64
2019-02-22T06:04:57.651Z,97.43
2019-02-22T06:05:57.641Z,96.91
2019-02-22T06:06:57.632Z,96.91
2019-02-22T06:07:57.631Z,97.80
2019-02-22T06:08:57.609Z,97.12
2019-02-22T06:09:57.602Z,97.53
2019-02-22T06:10:57.587Z,97.12
2019-02-22T06:11:57.576Z,97.43
2019-02-22T06:12:57.565Z,96.91
2019-02-22T06:13:57.557Z,96.70
2019-02-22T06:14:57.547Z,96.97
2019-02-22T06:15:57.538Z,96.81
2019-02-22T06:16:57.523Z,96.19
2019-02-22T06:17:57.513Z,97.17
2019-02-22T06:18:57.503Z,95.98
2019-02-22T06:19:57.494Z,95.87
2019-02-22T06:20:57.482Z,95.77
2019-02-22T06:21:57.471Z,94.84
2019-02-22T06:22:57.463Z,95.20
2019-02-22T06:23:57.449Z,95.00
2019-02-22T06:24:57.443Z,95.72
2019-02-22T06:25:57.437Z,95.15
2019-02-22T06:26:57.421Z,95.25
2019-02-22T06:27:57.409Z,95.36
2019-02-22T06:28:57.397Z,95.36
2019-02-22T06:29:57.387Z,95.15
2019-02-22T06:30:57.376Z,94.53
2019-02-22T06:31:57.368Z,94.42
2019-02-22T06:32:57.354Z,94.21
2019-02-22T06:33:57.344Z,93.80
2019-02-22T06:34:57.337Z,93.63
2019-02-22T06:35:57.323Z,93.43
2019-02-22T06:37:01.780Z,93.43
2019-02-22T06:37:58.303Z,93.43
2019-02-22T06:38:57.295Z,93.22
2019-02-22T06:39:57.287Z,93.63
2019-02-22T06:40:57.271Z,93.16
2019-02-22T06:41:57.268Z,93.47
2019-02-22T06:42:57.248Z,93.05
2019-02-22T06:43:57.241Z,93.05
2019-02-22T06:44:57.228Z,93.53
2019-02-22T06:45:57.217Z,93.16
2019-02-22T06:46:57.209Z,93.37
2019-02-22T06:47:57.195Z,92.11
2019-02-22T06:48:57.185Z,92.11
2019-02-22T06:49:57.176Z,92.26
2019-02-22T06:50:57.164Z,92.22
2019-02-22T06:51:57.153Z,91.91
2019-02-22T06:52:57.142Z,92.78
2019-02-22T06:53:57.133Z,92.11
2019-02-22T06:54:57.126Z,92.26
2019-02-22T06:55:57.114Z,92.57
2019-02-22T06:56:57.105Z,92.57
2019-02-22T06:57:57.095Z,92.16
2019-02-22T06:58:57.079Z,91.74
2019-02-22T06:59:57.070Z,91.74
2019-02-22T07:00:57.066Z,91.74
2019-02-22T07:01:57.061Z,92.05
2019-02-22T07:02:57.038Z,91.85
2019-02-22T07:03:57.027Z,91.74
2019-02-22T07:04:57.067Z,91.64
2019-02-22T07:05:57.006Z,91.95
2019-02-22T07:06:56.994Z,92.57
2019-02-22T07:07:57.064Z,92.47
2019-02-22T07:08:56.973Z,91.64
2019-02-22T07:09:56.974Z,91.89
2019-02-22T07:10:56.952Z,92.05
2019-02-22T07:11:56.944Z,91.37
2019-02-22T07:12:57.395Z,91.95
2019-02-22T07:13:56.922Z,91.95
2019-02-22T07:14:56.911Z,91.89
2019-02-22T07:15:56.900Z,91.47
2019-02-22T07:16:56.888Z,91.27
2019-02-22T07:17:56.881Z,90.95
2019-02-22T07:18:56.866Z,91.37
2019-02-22T07:19:56.863Z,89.70
2019-02-22T07:20:56.846Z,88.29
2019-02-22T07:21:56.835Z,86.21
2019-02-22T07:22:56.827Z,86.25
2019-02-22T07:23:56.815Z,86.46
2019-02-22T07:24:56.806Z,85.31
2019-02-22T07:25:56.805Z,85.00
2019-02-22T07:26:56.787Z,85.00
2019-02-22T07:27:56.771Z,85.14
2019-02-22T07:28:56.764Z,84.59
2019-02-22T07:29:56.752Z,84.63
2019-02-22T07:30:56.742Z,84.83
2019-02-22T07:32:05.326Z,84.83
2019-02-22T07:32:57.817Z,84.31
2019-02-22T07:33:56.711Z,85.14
2019-02-22T07:34:56.697Z,85.14
2019-02-22T07:35:56.690Z,84.52
2019-02-22T07:36:56.679Z,85.14
2019-02-22T07:37:56.666Z,84.94
2019-02-22T07:38:56.658Z,84.56
2019-02-22T07:39:56.646Z,85.08
2019-02-22T07:40:56.638Z,85.14
2019-02-22T07:41:56.626Z,85.39
2019-02-22T07:43:07.581Z,84.73
2019-02-22T07:43:57.603Z,84.63
2019-02-22T07:44:56.596Z,84.63
2019-02-22T07:45:56.583Z,85.25
2019-02-22T07:46:56.571Z,84.98
2019-02-22T07:47:56.562Z,84.42
2019-02-22T07:48:56.552Z,84.45
2019-02-22T07:49:56.540Z,84.77
2019-02-22T07:50:58.376Z,84.66
2019-02-22T07:51:56.518Z,84.56
2019-02-22T07:52:56.507Z,84.70
2019-02-22T07:53:56.500Z,85.12
2019-02-22T07:54:56.489Z,85.02
2019-02-22T07:55:56.477Z,85.53
2019-02-22T07:56:56.469Z,86.47
2019-02-22T07:57:56.458Z,86.43
2019-02-22T07:58:56.446Z,85.53
2019-02-22T07:59:56.439Z,85.74
2019-02-22T08:00:56.426Z,86.65
2019-02-22T08:01:56.416Z,85.43
2019-02-22T08:02:56.405Z,86.37
2019-02-22T08:03:56.392Z,86.65
2019-02-22T08:04:56.380Z,84.81
2019-02-22T08:05:56.379Z,85.08
2019-02-22T08:06:56.364Z,85.08
2019-02-22T08:07:56.350Z,84.77
2019-02-22T08:08:56.340Z,83.42
2019-02-22T08:09:56.330Z,83.52
2019-02-22T08:10:56.321Z,83.06
2019-02-22T08:11:56.313Z,83.69
2019-02-22T08:12:56.303Z,83.58
2019-02-22T08:13:56.286Z,84.00
2019-02-22T08:14:56.279Z,83.52
2019-02-22T08:15:56.277Z,83.58
2019-02-22T08:16:56.253Z,84.04
2019-02-22T08:17:56.244Z,83.80
2019-02-22T08:19:01.516Z,83.73
2019-02-22T08:19:57.224Z,83.52
2019-02-22T08:20:56.211Z,84.04
2019-02-22T08:21:56.201Z,83.42
2019-02-22T08:22:56.191Z,83.94
2019-02-22T08:23:56.183Z,83.87
2019-02-22T08:24:56.169Z,83.35
2019-02-22T08:25:56.161Z,83.66
2019-02-22T08:26:56.149Z,83.45
2019-02-22T08:27:56.138Z,83.76
2019-02-22T08:28:56.131Z,83.62
2019-02-22T08:29:56.118Z,83.87
2019-02-22T08:30:56.106Z,84.04
2019-02-22T08:31:56.101Z,84.50
2019-02-22T08:32:56.087Z,83.73
2019-02-22T08:33:57.176Z,83.62
2019-02-22T08:34:56.063Z,83.62
2019-02-22T08:35:56.057Z,83.94
2019-02-22T08:36:56.043Z,83.58
2019-02-22T08:37:56.033Z,82.18
2019-02-22T08:38:56.031Z,78.06
2019-02-22T08:39:58.888Z,78.79
2019-02-22T08:40:56.004Z,79.35
2019-02-22T08:41:55.990Z,78.97
2019-02-22T08:42:55.980Z,78.97
2019-02-22T08:43:55.972Z,78.49
2019-02-22T08:44:55.959Z,79.14
2019-02-22T08:45:55.947Z,79.83
2019-02-22T08:46:55.937Z,79.52
2019-02-22T08:47:55.927Z,77.79
2019-02-22T08:48:55.915Z,77.79
2019-02-22T08:49:55.909Z,79.14
2019-02-22T08:50:55.899Z,78.42
2019-02-22T08:51:55.888Z,79.04
2019-02-22T08:52:55.874Z,78.69
2019-02-22T08:53:55.865Z,77.69
2019-02-22T08:54:55.853Z,77.58
2019-02-22T08:55:55.845Z,77.27
2019-02-22T08:56:55.831Z,75.92
2019-02-22T08:57:55.834Z,76.30
2019-02-22T08:58:55.811Z,76.30
2019-02-22T08:59:55.801Z,75.32
2019-02-22T09:00:55.792Z,75.19
2019-02-22T09:01:55.780Z,73.94
2019-02-22T09:02:55.768Z,72.05
2019-02-22T09:03:55.761Z,65.85
2019-02-22T09:04:55.746Z,62.51
2019-02-22T09:05:55.735Z,60.64
2019-02-22T09:06:55.775Z,58.81
2019-02-22T09:07:55.720Z,60.03
2019-02-22T09:08:55.703Z,58.20
2019-02-22T09:09:55.696Z,56.18
2019-02-22T09:11:00.510Z,55.87
2019-02-22T09:11:57.760Z,54.97
2019-02-22T09:12:55.661Z,54.46
2019-02-22T09:13:55.650Z,51.71
2019-02-22T09:14:55.645Z,50.27
2019-02-22T09:15:55.627Z,47.37
2019-02-22T09:16:55.621Z,47.78
2019-02-22T09:17:55.612Z,45.34
2019-02-22T09:18:55.598Z,44.74
2019-02-22T09:19:55.592Z,44.90
2019-02-22T09:20:55.577Z,43.98
2019-02-22T09:21:55.566Z,42.14
2019-02-22T09:22:55.619Z,42.86
2019-02-22T09:23:55.544Z,41.72
2019-02-22T09:24:55.534Z,42.62
2019-02-22T09:25:55.528Z,41.47
2019-02-22T09:26:55.509Z,39.62
2019-02-22T09:27:55.502Z,41.02
2019-02-22T09:28:55.721Z,44.24
2019-02-22T09:29:58.800Z,43.69
2019-02-22T09:30:55.466Z,41.72
2019-02-22T09:31:55.459Z,41.53
2019-02-22T09:32:55.456Z,41.31
2019-02-22T09:33:55.434Z,39.15
2019-02-22T09:34:55.423Z,39.15
2019-02-22T09:35:55.411Z,39.48
2019-02-22T09:36:55.400Z,40.40
2019-02-22T09:37:55.391Z,40.50
2019-02-22T09:38:55.380Z,41.03
2019-02-22T09:39:55.368Z,40.01
2019-02-22T09:40:55.357Z,40.81
2019-02-22T09:41:55.349Z,40.31
2019-02-22T09:42:55.336Z,38.92
2019-02-22T09:43:55.931Z,39.17
2019-02-22T09:44:55.316Z,39.48
2019-02-22T09:45:55.320Z,39.68
2019-02-22T09:46:55.294Z,38.85
2019-02-22T09:47:55.282Z,39.27
2019-02-22T09:48:55.273Z,37.83
2019-02-22T09:49:55.265Z,37.62
2019-02-22T09:50:55.251Z,37.23
2019-02-22T09:51:55.239Z,38.62
2019-02-22T09:52:55.231Z,36.94
2019-02-22T09:53:55.222Z,36.77
2019-02-22T09:54:55.211Z,39.61
2019-02-22T09:55:55.200Z,39.26
2019-02-22T09:56:55.186Z,36.19
2019-02-22T09:57:55.176Z,36.89
2019-02-22T09:58:55.165Z,37.50
2019-02-22T09:59:55.152Z,35.76
2019-02-22T10:00:55.144Z,36.99
2019-02-22T10:01:55.133Z,35.69
2019-02-22T10:02:55.132Z,36.53
2019-02-22T10:03:55.113Z,37.37
2019-02-22T10:04:55.707Z,38.51
2019-02-22T10:05:55.088Z,37.49
2019-02-22T10:06:55.080Z,38.49
2019-02-22T10:07:55.071Z,38.05
2019-02-22T10:08:55.057Z,37.04
2019-02-22T10:09:55.049Z,35.85
2019-02-22T10:10:55.037Z,36.25
2019-02-22T10:11:55.025Z,37.06
2019-02-22T10:12:55.014Z,37.47
2019-02-22T10:14:06.046Z,37.15
2019-02-22T10:14:55.991Z,36.34
2019-02-22T10:15:54.984Z,36.63
2019-02-22T10:16:54.971Z,37.16
2019-02-22T10:17:54.962Z,37.15
2019-02-22T10:18:54.951Z,37.06
2019-02-22T10:19:54.941Z,36.75
2019-02-22T10:20:54.928Z,37.24
2019-02-22T10:21:57.426Z,35.59
2019-02-22T10:22:54.907Z,34.87
2019-02-22T10:23:54.898Z,38.05
2019-02-22T10:24:54.892Z,36.41
2019-02-22T10:25:54.878Z,35.38
2019-02-22T10:26:54.866Z,35.42
2019-02-22T10:27:54.854Z,36.03
2019-02-22T10:28:54.854Z,36.77
2019-02-22T10:29:54.833Z,37.90
2019-02-22T10:30:54.824Z,37.04
2019-02-22T10:31:54.811Z,36.73
2019-02-22T10:32:54.810Z,35.79
2019-02-22T10:33:54.791Z,35.79
2019-02-22T10:34:54.780Z,36.19
2019-02-22T10:35:54.769Z,35.86
2019-02-22T10:36:54.759Z,35.55
2019-02-22T10:37:54.746Z,35.86
2019-02-22T10:38:54.742Z,35.18
2019-02-22T10:39:54.727Z,36.96
2019-02-22T10:40:54.716Z,37.23
2019-02-22T10:41:54.708Z,36.63
2019-02-22T10:42:54.692Z,36.68
2019-02-22T10:43:54.681Z,35.08
2019-02-22T10:44:54.673Z,37.23
2019-02-22T10:45:54.660Z,35.49
2019-02-22T10:46:54.649Z,35.94
2019-02-22T10:47:54.640Z,37.06
2019-02-22T10:48:54.628Z,36.85
2019-02-22T10:49:54.617Z,36.10
2019-02-22T10:50:54.607Z,35.06
2019-02-22T10:51:54.595Z,34.94
2019-02-22T10:53:02.111Z,34.33
2019-02-22T10:53:55.572Z,34.01
2019-02-22T10:54:54.562Z,34.22
2019-02-22T10:55:54.552Z,35.54
2019-02-22T10:56:54.543Z,34.31
2019-02-22T10:57:54.531Z,32.33
2019-02-22T10:58:54.520Z,32.95
2019-02-22T10:59:54.510Z,32.52
2019-02-22T11:00:54.500Z,32.95
2019-02-22T11:01:54.488Z,33.06
2019-02-22T11:02:54.477Z,34.39
2019-02-22T11:03:54.469Z,33.34
2019-02-22T11:04:54.460Z,32.23
2019-02-22T11:05:54.445Z,34.07
2019-02-22T11:06:54.436Z,33.80
2019-02-22T11:07:54.429Z,35.35
2019-02-22T11:08:54.415Z,35.95
2019-02-22T11:09:54.402Z,33.89
2019-02-22T11:10:54.392Z,33.97
2019-02-22T11:11:54.380Z,33.75
2019-02-22T11:12:54.373Z,32.83
2019-02-22T11:13:54.359Z,32.95
2019-02-22T11:14:54.349Z,31.70
2019-02-22T11:15:54.419Z,31.70
2019-02-22T11:16:54.329Z,33.03
2019-02-22T11:17:54.316Z,32.61
2019-02-22T11:18:54.306Z,32.09
2019-02-22T11:19:54.297Z,31.72
2019-02-22T11:20:54.283Z,32.23
2019-02-22T11:21:54.275Z,33.95
2019-02-22T11:22:54.264Z,32.40
2019-02-22T11:23:54.253Z,32.61
2019-02-22T11:24:54.249Z,32.77
2019-02-22T11:25:54.230Z,30.42
2019-02-22T11:26:54.219Z,31.13
2019-02-22T11:27:54.209Z,31.15
2019-02-22T11:28:54.198Z,32.70
2019-02-22T11:29:54.186Z,31.15
2019-02-22T11:30:54.177Z,31.88
2019-02-22T11:31:54.298Z,31.38
2019-02-22T11:32:54.154Z,31.20
2019-02-22T11:33:54.144Z,31.50
2019-02-22T11:34:54.134Z,32.71
2019-02-22T11:35:54.123Z,33.17
2019-02-22T11:36:54.117Z,33.70
2019-02-22T11:37:54.103Z,33.06
2019-02-22T11:38:54.091Z,34.28
2019-02-22T11:39:54.081Z,33.02
2019-02-22T11:40:54.070Z,32.68
2019-02-22T11:41:54.061Z,32.37
2019-02-22T11:42:54.051Z,33.17
2019-02-22T11:43:54.038Z,35.44
2019-02-22T11:44:54.030Z,35.72
2019-02-22T11:45:54.017Z,35.36
2019-02-22T11:46:54.009Z,33.90
2019-02-22T11:47:53.996Z,35.52
2019-02-22T11:48:53.986Z,32.50
2019-02-22T11:49:53.973Z,32.26
2019-02-22T11:50:53.962Z,31.73
2019-02-22T11:51:55.930Z,30.76
2019-02-22T11:52:53.942Z,32.07
2019-02-22T11:53:53.931Z,32.18
2019-02-22T11:54:53.922Z,31.57
2019-02-22T11:55:53.912Z,32.55
2019-02-22T11:56:53.901Z,31.09
2019-02-22T11:57:53.889Z,30.68
2019-02-22T11:58:53.879Z,29.97
2019-02-22T11:59:53.872Z,30.89
2019-02-22T12:00:53.859Z,30.20
2019-02-22T12:01:53.847Z,30.54
2019-02-22T12:02:53.834Z,30.04
2019-02-22T12:03:53.824Z,31.57
2019-02-22T12:04:53.813Z,32.26
2019-02-22T12:05:53.802Z,32.43
2019-02-22T12:06:53.793Z,31.95
2019-02-22T12:07:53.784Z,30.74
2019-02-22T12:08:53.770Z,30.01
2019-02-22T12:09:53.767Z,30.42
2019-02-22T12:10:53.753Z,28.92
2019-02-22T12:11:53.738Z,30.14
2019-02-22T12:12:53.728Z,30.99
2019-02-22T12:13:53.721Z,33.24
2019-02-22T12:14:53.706Z,31.59
2019-02-22T12:15:53.702Z,30.86
2019-02-22T12:16:53.706Z,30.83
2019-02-22T12:17:53.673Z,30.54
2019-02-22T12:18:53.663Z,30.52
2019-02-22T12:19:53.651Z,31.22
2019-02-22T12:20:53.641Z,28.58
2019-02-22T12:21:53.631Z,31.08
2019-02-22T12:22:53.619Z,30.46
2019-02-22T12:23:53.610Z,31.18
2019-02-22T12:24:53.598Z,31.99
2019-02-22T12:25:53.587Z,30.57
2019-02-22T12:26:53.576Z,32.31
2019-02-22T12:27:53.567Z,30.79
2019-02-22T12:28:53.555Z,32.11
2019-02-22T12:29:53.547Z,30.96
2019-02-22T12:30:53.534Z,30.05
2019-02-22T12:31:58.281Z,32.51
2019-02-22T12:32:53.512Z,30.65
2019-02-22T12:33:53.501Z,31.34
2019-02-22T12:34:53.490Z,32.38
2019-02-22T12:35:53.483Z,32.33
2019-02-22T12:36:53.472Z,31.91
2019-02-22T12:37:53.461Z,32.16
2019-02-22T12:38:53.452Z,32.65
2019-02-22T12:39:53.436Z,31.41
2019-02-22T12:40:53.426Z,33.27
2019-02-22T12:41:53.761Z,32.83
2019-02-22T12:42:53.406Z,30.96
2019-02-22T12:43:53.393Z,29.61
2019-02-22T12:45:02.526Z,30.71
2019-02-22T12:45:54.374Z,28.45
2019-02-22T12:46:53.364Z,30.04
2019-02-22T12:47:53.352Z,31.81
2019-02-22T12:48:53.339Z,31.92
2019-02-22T12:49:53.332Z,32.84
2019-02-22T12:50:53.325Z,31.40
2019-02-22T12:51:53.307Z,30.14